Time;durP1;ratioP1;P1;durP2;ratioP2;P2;SDS_P1;SDS_P2;PMS_P1;PMS_P2;Temp;Humidity;BMP_temperature;BMP_pressure;BME280_temperature;BME280_humidity;BME280_pressure;Samples;Min_cycle;Max_cycle;Signal;HPM_P1;HPM_P2
2022/12/15 00:40:04;;;;;;;20.97;11.63;;;;;;;;;;5003939;28;20582;-69
2022/12/15 00:42:29;;;;;;;20.97;11.83;;;;;;;;;;4993488;28;20704;-69
2022/12/15 00:44:55;;;;;;;19.67;11.30;;;;;;;;;;4985660;28;20209;-70
2022/12/15 00:47:20;;;;;;;19.83;11.27;;;;;;;;;;5002871;28;20296;-70
2022/12/15 01:22:31;;;;;;;23.97;12.20;;;;;;;;;;4993441;28;20634;-69
2022/12/15 01:24:57;;;;;;;21.23;11.70;;;;;;;;;;4994715;28;20217;-70
2022/12/15 01:27:22;;;;;;;22.07;12.00;;;;;;;;;;4994244;28;20295;-69
2022/12/15 01:29:47;;;;;;;20.73;11.53;;;;;;;;;;4994010;28;20223;-70
2022/12/15 01:32:13;;;;;;;23.97;12.27;;;;;;;;;;4993717;28;20624;-69
2022/12/15 01:34:38;;;;;;;22.43;11.60;;;;;;;;;;4994720;28;20217;-70
2022/12/15 01:37:03;;;;;;;24.80;12.83;;;;;;;;;;4993094;28;20699;-69
2022/12/15 01:40:43;;;;;;;21.73;12.00;;;;;;;;;;4994414;28;20217;-70
2022/12/15 01:42:14;;;;;;;22.20;11.90;;;;;;;;;;4993737;28;20232;-70
2022/12/15 01:44:39;;;;;;;25.20;12.43;;;;;;;;;;4984723;28;20218;-70
2022/12/15 01:47:04;;;;;;;24.27;13.07;;;;;;;;;;4956048;28;20224;-69
2022/12/15 01:49:29;;;;;;;19.67;12.07;;;;;;;;;;4974396;28;20209;-70
2022/12/15 01:51:56;;;;;;;24.97;12.50;;;;;;;;;;4975544;28;20237;-70
2022/12/15 01:54:22;;;;;;;21.43;11.60;;;;;;;;;;4974226;28;20214;-69
2022/12/15 01:56:50;;;;;;;21.03;11.70;;;;;;;;;;4970701;28;20237;-70
2022/12/15 01:59:18;;;;;;;26.67;11.70;;;;;;;;;;4979074;28;20201;-69
2022/12/15 02:01:43;;;;;;;22.17;12.07;;;;;;;;;;4982809;28;20255;-69
2022/12/15 02:04:08;;;;;;;22.60;12.20;;;;;;;;;;4963998;28;20673;-69
2022/12/15 02:06:34;;;;;;;22.13;12.50;;;;;;;;;;4973740;28;20218;-70
2022/12/15 02:08:59;;;;;;;24.40;12.37;;;;;;;;;;4957821;28;21078;-69
2022/12/15 02:11:24;;;;;;;22.17;11.77;;;;;;;;;;4950570;28;20213;-69
2022/12/15 02:14:00;;;;;;;22.20;12.30;;;;;;;;;;4966850;28;20760;-70
2022/12/15 02:16:26;;;;;;;23.47;12.03;;;;;;;;;;4989275;28;20618;-70
2022/12/15 02:18:52;;;;;;;24.03;12.27;;;;;;;;;;4984806;28;20224;-70
2022/12/15 02:21:18;;;;;;;22.17;12.40;;;;;;;;;;4989180;28;20272;-69
2022/12/15 02:23:43;;;;;;;20.63;11.17;;;;;;;;;;4993802;28;20213;-70
2022/12/15 02:26:19;;;;;;;25.70;12.40;;;;;;;;;;4982566;28;20221;-69
2022/12/15 02:28:47;;;;;;;19.57;11.63;;;;;;;;;;5001973;28;20220;-69
2022/12/15 02:34:13;;;;;;;23.13;12.20;;;;;;;;;;4992668;28;20969;-69
2022/12/15 02:39:42;;;;;;;22.17;11.60;;;;;;;;;;4988194;28;20294;-70
2022/12/15 02:42:08;;;;;;;21.27;11.43;;;;;;;;;;4983104;28;20233;-68
2022/12/15 02:44:34;;;;;;;22.23;11.47;;;;;;;;;;4983756;28;20740;-69
2022/12/15 02:47:03;;;;;;;21.30;11.67;;;;;;;;;;4998259;28;20266;-70
2022/12/15 02:49:30;;;;;;;21.00;11.33;;;;;;;;;;5004994;28;20215;-69
2022/12/15 02:52:08;;;;;;;21.37;11.80;;;;;;;;;;5012364;28;20200;-69
2022/12/15 02:54:36;;;;;;;21.87;11.87;;;;;;;;;;5003326;28;20279;-69
2022/12/15 02:57:04;;;;;;;19.33;10.97;;;;;;;;;;4996717;28;20217;-69
2022/12/15 02:59:35;;;;;;;24.80;11.70;;;;;;;;;;4983751;28;20224;-69
2022/12/15 03:02:01;;;;;;;25.33;12.63;;;;;;;;;;5011695;28;20251;-68
2022/12/15 03:04:27;;;;;;;21.87;11.03;;;;;;;;;;5003123;28;20707;-69
2022/12/15 03:06:53;;;;;;;20.90;12.23;;;;;;;;;;5012646;28;20556;-69
2022/12/15 03:09:18;;;;;;;19.40;10.77;;;;;;;;;;5011219;28;20217;-69
2022/12/15 03:11:43;;;;;;;24.00;12.00;;;;;;;;;;5012603;28;20211;-70
2022/12/15 03:14:08;;;;;;;22.97;11.50;;;;;;;;;;5011913;28;20223;-69
2022/12/15 03:16:34;;;;;;;23.67;11.97;;;;;;;;;;4998397;28;20252;-67
2022/12/15 03:18:59;;;;;;;21.43;11.03;;;;;;;;;;4980176;28;20227;-70
2022/12/15 03:21:24;;;;;;;20.90;10.90;;;;;;;;;;4972184;28;20304;-69
2022/12/15 03:23:49;;;;;;;20.13;10.53;;;;;;;;;;4979738;28;20213;-70
2022/12/15 03:26:15;;;;;;;20.40;11.00;;;;;;;;;;4970522;28;20332;-69
2022/12/15 03:28:41;;;;;;;20.37;11.03;;;;;;;;;;4977968;28;20205;-70
2022/12/15 03:31:06;;;;;;;21.87;11.07;;;;;;;;;;4978384;28;20224;-69
2022/12/15 03:33:32;;;;;;;20.33;11.13;;;;;;;;;;4980816;28;20208;-70
2022/12/15 03:35:57;;;;;;;20.03;11.27;;;;;;;;;;4986037;28;20228;-70
2022/12/15 03:38:22;;;;;;;23.90;11.63;;;;;;;;;;4985334;28;20275;-70
2022/12/15 03:40:48;;;;;;;21.60;11.27;;;;;;;;;;4986182;28;20647;-70
2022/12/15 03:43:13;;;;;;;22.03;11.50;;;;;;;;;;4985313;28;20233;-70
2022/12/15 03:45:38;;;;;;;22.53;11.40;;;;;;;;;;4986699;28;20217;-69
2022/12/15 03:48:04;;;;;;;18.60;10.77;;;;;;;;;;4971349;28;20682;-69
2022/12/15 03:50:29;;;;;;;22.23;11.13;;;;;;;;;;4959852;28;20218;-70
2022/12/15 03:52:55;;;;;;;20.87;11.60;;;;;;;;;;4958580;28;20217;-70
2022/12/15 03:55:20;;;;;;;20.83;10.97;;;;;;;;;;4958998;28;20222;-69
2022/12/15 03:57:46;;;;;;;23.10;11.53;;;;;;;;;;4966502;28;20213;-70
2022/12/15 04:00:13;;;;;;;19.37;10.90;;;;;;;;;;4972643;28;20218;-69
2022/12/15 04:02:39;;;;;;;20.47;11.10;;;;;;;;;;4983938;28;20233;-70
2022/12/15 04:05:05;;;;;;;22.10;11.87;;;;;;;;;;4966006;28;20332;-69
2022/12/15 04:07:30;;;;;;;21.67;10.77;;;;;;;;;;4966814;28;20233;-70
2022/12/15 04:09:55;;;;;;;19.47;11.43;;;;;;;;;;4965072;28;20214;-70
2022/12/15 04:12:20;;;;;;;19.80;11.07;;;;;;;;;;4960722;28;20638;-70
2022/12/15 04:14:46;;;;;;;19.13;10.53;;;;;;;;;;4956101;28;20265;-70
2022/12/15 04:17:11;;;;;;;20.07;11.53;;;;;;;;;;4958416;28;20222;-69
2022/12/15 04:22:21;;;;;;;20.03;11.07;;;;;;;;;;4984706;28;20231;-69
2022/12/15 05:33:04;;;;;;;20.00;10.67;;;;;;;;;;4965254;28;20228;-70
2022/12/15 05:35:30;;;;;;;23.87;10.83;;;;;;;;;;4980527;28;20832;-70
2022/12/15 05:37:55;;;;;;;21.43;11.17;;;;;;;;;;4977107;28;20217;-70
2022/12/15 05:40:20;;;;;;;21.80;11.80;;;;;;;;;;4975402;28;20213;-67
2022/12/15 05:42:45;;;;;;;18.90;11.43;;;;;;;;;;4971270;28;20233;-69
2022/12/15 05:45:11;;;;;;;21.80;11.30;;;;;;;;;;4964769;28;20217;-69
2022/12/15 05:47:36;;;;;;;20.60;12.07;;;;;;;;;;4965010;28;20218;-70
2022/12/15 05:50:01;;;;;;;22.37;11.30;;;;;;;;;;4963258;28;20320;-68
2022/12/15 05:52:26;;;;;;;20.00;11.20;;;;;;;;;;4965172;28;20577;-69
2022/12/15 05:54:52;;;;;;;21.80;11.20;;;;;;;;;;4964751;28;20228;-70
2022/12/15 05:57:17;;;;;;;22.50;12.77;;;;;;;;;;4962961;28;20628;-70
2022/12/15 05:59:42;;;;;;;23.47;13.27;;;;;;;;;;4957644;28;20815;-69
2022/12/15 06:02:08;;;;;;;22.23;12.23;;;;;;;;;;4956072;28;20237;-69
2022/12/15 06:04:33;;;;;;;21.27;11.43;;;;;;;;;;4956861;28;20257;-69
2022/12/15 06:06:58;;;;;;;23.97;12.00;;;;;;;;;;4965092;28;20670;-70
2022/12/15 06:09:23;;;;;;;24.13;11.67;;;;;;;;;;4971073;28;20209;-69
2022/12/15 06:11:49;;;;;;;19.23;10.97;;;;;;;;;;4983369;28;20224;-69
2022/12/15 06:14:14;;;;;;;20.60;11.30;;;;;;;;;;4966285;28;20233;-68
2022/12/15 06:16:39;;;;;;;20.00;11.77;;;;;;;;;;4964799;28;20226;-69
2022/12/15 06:19:05;;;;;;;22.83;12.07;;;;;;;;;;4982219;28;20217;-68
2022/12/15 06:21:31;;;;;;;23.20;12.10;;;;;;;;;;4973925;28;20235;-68
2022/12/15 06:23:56;;;;;;;27.90;15.40;;;;;;;;;;4957162;28;20428;-69
2022/12/15 06:26:22;;;;;;;22.43;12.37;;;;;;;;;;4974476;28;20213;-69
2022/12/15 06:28:49;;;;;;;23.87;12.73;;;;;;;;;;4972557;28;20595;-67
2022/12/15 06:31:14;;;;;;;21.50;11.90;;;;;;;;;;4965043;28;20217;-70
2022/12/15 06:33:39;;;;;;;21.63;12.60;;;;;;;;;;4964555;28;20210;-70
2022/12/15 06:36:06;;;;;;;27.23;13.07;;;;;;;;;;4964201;28;20213;-69
2022/12/15 06:38:31;;;;;;;24.80;12.90;;;;;;;;;;4963558;28;20199;-71
2022/12/15 06:40:57;;;;;;;21.87;12.13;;;;;;;;;;4966008;28;20214;-70
2022/12/15 06:43:22;;;;;;;22.93;12.37;;;;;;;;;;4959763;28;20226;-70
2022/12/15 06:45:48;;;;;;;23.83;13.20;;;;;;;;;;4956291;28;20213;-70
2022/12/15 06:48:13;;;;;;;23.30;11.90;;;;;;;;;;4955939;28;20296;-65
2022/12/15 06:50:40;;;;;;;25.63;11.63;;;;;;;;;;4961197;28;20214;-66
2022/12/15 06:53:05;;;;;;;23.85;14.43;;;;;;;;;;4962273;28;20936;-66
2022/12/15 06:55:30;;;;;;;24.60;13.70;;;;;;;;;;4964308;28;20221;-68
2022/12/15 06:57:56;;;;;;;23.97;13.17;;;;;;;;;;4964220;28;20214;-67
2022/12/15 07:00:21;;;;;;;22.23;12.63;;;;;;;;;;4963880;28;20222;-65
2022/12/15 07:02:46;;;;;;;23.30;12.77;;;;;;;;;;4964133;28;20568;-66
2022/12/15 07:05:12;;;;;;;22.50;12.00;;;;;;;;;;4962281;28;20229;-66
2022/12/15 07:07:37;;;;;;;24.57;14.33;;;;;;;;;;4956331;28;20221;-66
2022/12/15 07:10:03;;;;;;;26.00;13.60;;;;;;;;;;4955891;28;20616;-66
2022/12/15 07:12:28;;;;;;;28.40;14.20;;;;;;;;;;4956797;28;20232;-67
2022/12/15 07:14:53;;;;;;;29.60;13.90;;;;;;;;;;4962925;28;20219;-65
2022/12/15 07:17:18;;;;;;;25.47;12.83;;;;;;;;;;4963628;28;20308;-66
2022/12/15 07:19:44;;;;;;;25.27;13.10;;;;;;;;;;4963798;28;20210;-67
2022/12/15 07:22:09;;;;;;;24.77;13.40;;;;;;;;;;4963088;28;20226;-66
2022/12/15 07:24:34;;;;;;;25.57;13.33;;;;;;;;;;4963888;28;20301;-66
2022/12/15 07:26:59;;;;;;;23.10;13.90;;;;;;;;;;4964069;28;20237;-66
2022/12/15 07:29:25;;;;;;;26.90;13.57;;;;;;;;;;4976972;28;20217;-66
2022/12/15 07:31:50;;;;;;;23.17;11.50;;;;;;;;;;4975081;28;20205;-65
2022/12/15 07:34:15;;;;;;;23.40;12.53;;;;;;;;;;4974658;28;20206;-64
2022/12/15 07:36:41;;;;;;;20.60;11.67;;;;;;;;;;4980901;28;20220;-64
2022/12/15 07:39:06;;;;;;;25.13;14.07;;;;;;;;;;4990565;28;20618;-64
2022/12/15 07:41:31;;;;;;;23.97;13.50;;;;;;;;;;4991836;28;20217;-65
2022/12/15 07:43:56;;;;;;;24.13;13.40;;;;;;;;;;4993164;28;20251;-66
2022/12/15 07:46:22;;;;;;;25.00;13.97;;;;;;;;;;5005234;28;20212;-65
2022/12/15 07:48:48;;;;;;;31.50;13.53;;;;;;;;;;5011724;28;20217;-66
2022/12/15 07:51:13;;;;;;;25.73;14.40;;;;;;;;;;5002345;28;20286;-65
2022/12/15 07:53:38;;;;;;;28.90;14.73;;;;;;;;;;5011923;28;20244;-66
2022/12/15 07:56:04;;;;;;;24.43;13.67;;;;;;;;;;5004556;28;20213;-65
2022/12/15 07:58:30;;;;;;;25.37;13.20;;;;;;;;;;4992350;28;20288;-66
2022/12/15 08:00:59;;;;;;;27.33;17.07;;;;;;;;;;5009445;28;20308;-65
2022/12/15 08:03:24;;;;;;;28.83;16.30;;;;;;;;;;5006512;28;20222;-65
2022/12/15 08:05:49;;;;;;;29.57;14.40;;;;;;;;;;5006907;28;20285;-66
2022/12/15 08:08:16;;;;;;;24.27;13.80;;;;;;;;;;5011441;28;20581;-65
2022/12/15 08:10:41;;;;;;;28.00;14.60;;;;;;;;;;5011401;28;20205;-67
2022/12/15 08:13:06;;;;;;;27.70;15.00;;;;;;;;;;5002935;28;20373;-66
2022/12/15 08:15:36;;;;;;;27.03;14.90;;;;;;;;;;4991992;28;20645;-66
2022/12/15 08:18:01;;;;;;;29.73;15.67;;;;;;;;;;4985479;28;20206;-66
2022/12/15 08:20:28;;;;;;;27.40;15.53;;;;;;;;;;4984598;28;20761;-66
2022/12/15 08:22:53;;;;;;;29.80;15.90;;;;;;;;;;4985250;28;20228;-66
2022/12/15 08:25:18;;;;;;;32.50;15.73;;;;;;;;;;4985032;28;20202;-65
2022/12/15 08:27:43;;;;;;;28.90;15.10;;;;;;;;;;4977784;28;20236;-66
2022/12/15 08:30:09;;;;;;;29.50;15.90;;;;;;;;;;4978528;28;20691;-65
2022/12/15 08:32:34;;;;;;;26.17;15.00;;;;;;;;;;5005806;28;20208;-66
2022/12/15 08:34:59;;;;;;;31.20;16.03;;;;;;;;;;5005455;28;20703;-66
2022/12/15 08:37:25;;;;;;;29.50;15.60;;;;;;;;;;5012963;28;20209;-65
2022/12/15 08:39:51;;;;;;;28.20;16.03;;;;;;;;;;5005620;28;20228;-66
2022/12/15 08:42:16;;;;;;;26.10;15.30;;;;;;;;;;5003586;28;20763;-66
2022/12/15 08:44:41;;;;;;;29.93;15.47;;;;;;;;;;5002713;28;20239;-66
2022/12/15 08:47:06;;;;;;;25.13;15.13;;;;;;;;;;5011219;28;20220;-65
2022/12/15 08:49:32;;;;;;;28.97;15.57;;;;;;;;;;5006971;28;20240;-66
2022/12/15 08:51:57;;;;;;;28.77;15.70;;;;;;;;;;5014156;28;20228;-66
2022/12/15 08:54:22;;;;;;;26.43;15.27;;;;;;;;;;5014320;28;20216;-64
2022/12/15 08:56:48;;;;;;;27.87;15.80;;;;;;;;;;5001891;28;20240;-62
2022/12/15 08:59:13;;;;;;;26.03;15.27;;;;;;;;;;4999820;28;20213;-64
2022/12/15 09:01:39;;;;;;;31.93;15.50;;;;;;;;;;5014010;28;20220;-64
2022/12/15 09:04:04;;;;;;;29.87;16.53;;;;;;;;;;5013770;28;20235;-65
2022/12/15 09:06:30;;;;;;;31.33;16.53;;;;;;;;;;5014071;28;20228;-65
2022/12/15 09:08:55;;;;;;;28.43;15.37;;;;;;;;;;5014459;28;20642;-65
2022/12/15 09:11:21;;;;;;;30.67;15.67;;;;;;;;;;5013714;28;20200;-69
2022/12/15 09:13:47;;;;;;;33.10;16.67;;;;;;;;;;5013413;28;20304;-66
2022/12/15 09:16:13;;;;;;;27.17;14.60;;;;;;;;;;5002757;28;20296;-64
2022/12/15 09:18:40;;;;;;;29.37;16.57;;;;;;;;;;4993662;28;20219;-65
2022/12/15 09:21:06;;;;;;;12.63;7.60;;;;;;;;;;4993771;28;20212;-64
2022/12/15 09:23:31;;;;;;;28.53;15.10;;;;;;;;;;4994698;28;20227;-65
2022/12/15 09:25:58;;;;;;;29.43;15.80;;;;;;;;;;4994312;28;20692;-64
2022/12/15 09:28:23;;;;;;;26.77;14.97;;;;;;;;;;4991917;28;20236;-61
2022/12/15 09:30:49;;;;;;;33.33;16.20;;;;;;;;;;5010417;28;20635;-64
2022/12/15 09:33:14;;;;;;;27.23;15.77;;;;;;;;;;5013023;28;20209;-64
2022/12/15 09:35:39;;;;;;;28.33;16.60;;;;;;;;;;5005244;28;20771;-65
2022/12/15 09:38:04;;;;;;;29.27;17.07;;;;;;;;;;5004191;28;20208;-64
2022/12/15 09:40:32;;;;;;;26.80;16.97;;;;;;;;;;4995732;28;20201;-64
2022/12/15 09:42:57;;;;;;;27.83;16.70;;;;;;;;;;5004741;28;20295;-64
2022/12/15 09:45:25;;;;;;;31.10;17.07;;;;;;;;;;5013074;28;20247;-64
2022/12/15 09:47:59;;;;;;;28.80;16.87;;;;;;;;;;5000545;28;20295;-65
2022/12/15 09:50:26;;;;;;;31.23;17.40;;;;;;;;;;5006645;28;20664;-64
2022/12/15 09:52:52;;;;;;;28.07;16.83;;;;;;;;;;5013289;28;20221;-64
2022/12/15 09:55:20;;;;;;;27.90;16.50;;;;;;;;;;5010981;28;20250;-64
2022/12/15 09:57:52;;;;;;;27.47;15.93;;;;;;;;;;4994103;28;20213;-64
2022/12/15 10:00:20;;;;;;;30.33;16.10;;;;;;;;;;5005846;28;20652;-64
2022/12/15 10:03:04;;;;;;;26.83;15.47;;;;;;;;;;5003065;28;20239;-64
2022/12/15 10:05:31;;;;;;;29.80;16.27;;;;;;;;;;5004782;28;20232;-64
2022/12/15 10:07:57;;;;;;;26.17;15.67;;;;;;;;;;5013092;28;20212;-65
2022/12/15 10:10:25;;;;;;;29.37;15.83;;;;;;;;;;5003012;28;20643;-65
2022/12/15 10:12:51;;;;;;;24.33;15.63;;;;;;;;;;5012932;28;20308;-66
2022/12/15 10:15:23;;;;;;;27.73;15.97;;;;;;;;;;5009145;28;20236;-65
2022/12/15 10:17:56;;;;;;;29.37;15.90;;;;;;;;;;4991589;28;20209;-65
2022/12/15 10:20:23;;;;;;;28.60;16.33;;;;;;;;;;4991669;28;20209;-65
2022/12/15 10:22:48;;;;;;;29.83;16.50;;;;;;;;;;4996099;28;20276;-66
2022/12/15 10:25:14;;;;;;;26.77;16.20;;;;;;;;;;4974568;28;20214;-65
2022/12/15 10:27:45;;;;;;;28.50;16.70;;;;;;;;;;4982587;28;20327;-65
2022/12/15 10:30:11;;;;;;;25.27;16.43;;;;;;;;;;4979087;28;20682;-63
2022/12/15 10:32:52;;;;;;;26.87;16.43;;;;;;;;;;4981047;28;20745;-66
2022/12/15 10:35:20;;;;;;;27.30;17.50;;;;;;;;;;4987815;28;20687;-65
2022/12/15 10:37:45;;;;;;;28.60;18.00;;;;;;;;;;4992565;28;20293;-65
2022/12/15 10:40:17;;;;;;;27.17;17.20;;;;;;;;;;4992797;28;20225;-64
2022/12/15 10:42:45;;;;;;;26.37;17.10;;;;;;;;;;4986243;28;20228;-64
2022/12/15 10:45:27;;;;;;;26.17;16.70;;;;;;;;;;4981815;28;20234;-65
2022/12/15 10:47:57;;;;;;;25.23;16.83;;;;;;;;;;4987431;28;20299;-65
2022/12/15 10:50:23;;;;;;;29.33;17.57;;;;;;;;;;4998027;28;20236;-64
2022/12/15 10:52:48;;;;;;;26.80;17.30;;;;;;;;;;4992528;28;20252;-65
2022/12/15 10:55:31;;;;;;;26.20;17.00;;;;;;;;;;4992678;28;20237;-64
2022/12/15 10:57:58;;;;;;;27.17;17.20;;;;;;;;;;4992791;28;20251;-65
2022/12/15 11:00:26;;;;;;;24.60;16.50;;;;;;;;;;5005508;28;20299;-65
2022/12/15 11:02:51;;;;;;;27.90;16.97;;;;;;;;;;5012102;28;20224;-65
2022/12/15 11:05:16;;;;;;;27.77;17.30;;;;;;;;;;5011890;28;20283;-64
2022/12/15 11:07:44;;;;;;;25.93;16.93;;;;;;;;;;5012230;28;20219;-65
2022/12/15 11:10:15;;;;;;;29.20;17.90;;;;;;;;;;5011918;28;20208;-64
2022/12/15 11:12:50;;;;;;;28.40;17.27;;;;;;;;;;5011470;28;20213;-65
2022/12/15 11:15:20;;;;;;;28.00;16.50;;;;;;;;;;5008859;28;20669;-65
2022/12/15 11:17:45;;;;;;;26.73;17.47;;;;;;;;;;4992635;28;20213;-65
2022/12/15 11:20:13;;;;;;;24.50;17.07;;;;;;;;;;4990636;28;20689;-65
2022/12/15 11:22:44;;;;;;;27.60;16.87;;;;;;;;;;4991357;28;20371;-65
2022/12/15 11:25:28;;;;;;;28.60;17.17;;;;;;;;;;4991059;28;20248;-64
2022/12/15 11:27:54;;;;;;;25.67;17.50;;;;;;;;;;4991781;28;20201;-64
2022/12/15 11:30:21;;;;;;;27.20;17.13;;;;;;;;;;4991143;28;20240;-65
2022/12/15 11:32:47;;;;;;;29.00;17.63;;;;;;;;;;4991251;28;20209;-65
2022/12/15 11:35:13;;;;;;;30.93;17.80;;;;;;;;;;4990239;28;20213;-64
2022/12/15 11:37:39;;;;;;;26.30;17.00;;;;;;;;;;4991212;28;20220;-65
2022/12/15 11:40:19;;;;;;;27.10;16.63;;;;;;;;;;4992312;28;20623;-65
2022/12/15 11:42:47;;;;;;;28.23;17.77;;;;;;;;;;4991779;28;20221;-65
2022/12/15 11:45:21;;;;;;;27.70;16.87;;;;;;;;;;4992198;28;20256;-65
2022/12/15 11:47:49;;;;;;;27.67;16.67;;;;;;;;;;4992514;28;20209;-65
2022/12/15 11:50:15;;;;;;;28.17;17.10;;;;;;;;;;4995609;28;20229;-64
2022/12/15 11:52:45;;;;;;;26.87;17.97;;;;;;;;;;4996015;28;20677;-65
2022/12/15 11:55:10;;;;;;;25.97;17.33;;;;;;;;;;4994150;28;20217;-64
2022/12/15 11:57:42;;;;;;;28.60;18.10;;;;;;;;;;5014987;28;20583;-65
2022/12/15 12:00:09;;;;;;;25.67;17.00;;;;;;;;;;4985356;28;20305;-65
2022/12/15 12:02:34;;;;;;;27.67;18.40;;;;;;;;;;4974683;28;20772;-65
2022/12/15 12:05:17;;;;;;;27.77;17.97;;;;;;;;;;4976299;28;20329;-65
2022/12/15 12:07:45;;;;;;;26.17;17.47;;;;;;;;;;4976267;28;20716;-65
2022/12/15 12:10:10;;;;;;;27.03;17.63;;;;;;;;;;4975736;28;20225;-64
2022/12/15 12:12:38;;;;;;;26.90;17.77;;;;;;;;;;4975841;28;20222;-65
2022/12/15 12:15:17;;;;;;;25.53;17.47;;;;;;;;;;4975131;28;20218;-64
2022/12/15 12:17:45;;;;;;;24.83;16.63;;;;;;;;;;4995527;28;20282;-65
2022/12/15 12:20:13;;;;;;;26.57;18.00;;;;;;;;;;4995073;28;20556;-65
2022/12/15 12:22:39;;;;;;;24.93;17.60;;;;;;;;;;4995498;28;20233;-65
2022/12/15 12:25:05;;;;;;;29.77;17.93;;;;;;;;;;4994496;28;20712;-65
2022/12/15 12:27:41;;;;;;;26.63;18.23;;;;;;;;;;4995497;28;20205;-65
2022/12/15 12:30:14;;;;;;;28.17;17.97;;;;;;;;;;4993397;28;20216;-65
2022/12/15 12:32:46;;;;;;;25.20;17.00;;;;;;;;;;4994403;28;20213;-65
2022/12/15 12:35:20;;;;;;;29.20;18.17;;;;;;;;;;4993482;28;20213;-65
2022/12/15 12:37:57;;;;;;;28.53;17.93;;;;;;;;;;4994944;28;20205;-65
2022/12/15 12:40:26;;;;;;;29.85;18.48;;;;;;;;;;4994910;28;20296;-65
2022/12/15 12:42:53;;;;;;;27.43;18.07;;;;;;;;;;4995188;28;20225;-65
2022/12/15 12:45:18;;;;;;;27.30;17.57;;;;;;;;;;4994446;28;20217;-65
2022/12/15 12:47:45;;;;;;;28.20;18.73;;;;;;;;;;4993871;28;20263;-65
2022/12/15 12:50:14;;;;;;;25.57;17.43;;;;;;;;;;5003045;28;20212;-65
2022/12/15 12:52:39;;;;;;;28.37;18.30;;;;;;;;;;4993167;28;20640;-65
2022/12/15 12:55:10;;;;;;;33.22;19.85;;;;;;;;;;4993298;28;20719;-64
2022/12/15 12:57:36;;;;;;;29.25;18.73;;;;;;;;;;4976039;28;20213;-65
2022/12/15 13:00:02;;;;;;;29.93;19.33;;;;;;;;;;4983858;28;20209;-65
2022/12/15 13:02:28;;;;;;;27.40;18.60;;;;;;;;;;5001112;28;20225;-65
2022/12/15 13:04:56;;;;;;;28.60;18.83;;;;;;;;;;5009892;28;20240;-65
2022/12/15 13:07:31;;;;;;;28.43;18.50;;;;;;;;;;5013608;28;20236;-65
2022/12/15 13:10:06;;;;;;;29.10;18.47;;;;;;;;;;5014291;28;20208;-65
2022/12/15 13:12:44;;;;;;;27.30;18.73;;;;;;;;;;5005561;28;20219;-67
2022/12/15 13:15:25;;;;;;;27.70;19.00;;;;;;;;;;5011012;28;20657;-65
2022/12/15 13:17:51;;;;;;;28.27;19.40;;;;;;;;;;4986554;28;20312;-66
2022/12/15 13:20:19;;;;;;;29.52;20.50;;;;;;;;;;4983398;28;20300;-64
2022/12/15 13:22:44;;;;;;;27.67;18.73;;;;;;;;;;4987521;28;20225;-65
2022/12/15 13:25:26;;;;;;;30.55;20.80;;;;;;;;;;4993026;28;20217;-69
2022/12/15 13:27:51;;;;;;;29.57;20.90;;;;;;;;;;4986075;28;20221;-68
2022/12/15 13:30:17;;;;;;;30.23;19.43;;;;;;;;;;4982473;28;20232;-68
2022/12/15 13:32:43;;;;;;;33.73;21.20;;;;;;;;;;4971047;28;20213;-65
2022/12/15 13:35:15;;;;;;;32.97;21.23;;;;;;;;;;4975303;28;20210;-65
2022/12/15 13:37:49;;;;;;;29.37;20.27;;;;;;;;;;4987822;28;20205;-65
2022/12/15 13:40:21;;;;;;;30.87;20.67;;;;;;;;;;4993171;28;20216;-65
2022/12/15 13:42:54;;;;;;;28.47;19.17;;;;;;;;;;4994239;28;20225;-65
2022/12/15 13:45:24;;;;;;;28.67;19.27;;;;;;;;;;4993518;28;20217;-65
2022/12/15 13:47:50;;;;;;;28.70;19.67;;;;;;;;;;4992076;28;20221;-66
2022/12/15 13:50:17;;;;;;;28.40;19.90;;;;;;;;;;4986555;28;20275;-65
2022/12/15 13:52:48;;;;;;;32.37;20.53;;;;;;;;;;4992173;28;20213;-65
2022/12/15 13:55:16;;;;;;;30.43;20.40;;;;;;;;;;4992885;28;20578;-65
2022/12/15 13:57:50;;;;;;;31.60;21.03;;;;;;;;;;4974603;28;20210;-65
2022/12/15 14:00:17;;;;;;;29.77;20.17;;;;;;;;;;4994177;28;20290;-65
2022/12/15 14:02:43;;;;;;;32.70;20.37;;;;;;;;;;5012368;28;20216;-65
2022/12/15 14:05:16;;;;;;;33.20;20.93;;;;;;;;;;5012478;28;20885;-65
2022/12/15 14:07:44;;;;;;;34.13;20.87;;;;;;;;;;5013308;28;20680;-65
2022/12/15 14:10:18;;;;;;;30.07;19.17;;;;;;;;;;5012209;28;20228;-65
2022/12/15 14:12:43;;;;;;;32.20;20.50;;;;;;;;;;5012876;28;20209;-65
2022/12/15 14:15:11;;;;;;;32.57;21.00;;;;;;;;;;5001150;28;20772;-65
2022/12/15 14:17:36;;;;;;;30.73;20.20;;;;;;;;;;4992929;28;20221;-65
2022/12/15 14:20:09;;;;;;;28.10;19.37;;;;;;;;;;4991619;28;20224;-65
2022/12/15 14:22:34;;;;;;;32.50;21.00;;;;;;;;;;4992645;28;20229;-65
2022/12/15 14:25:01;;;;;;;30.57;20.13;;;;;;;;;;4993296;28;20275;-65
2022/12/15 14:27:27;;;;;;;29.80;20.70;;;;;;;;;;4993160;28;20237;-65
2022/12/15 14:30:11;;;;;;;33.17;20.87;;;;;;;;;;4993103;28;20588;-65
2022/12/15 14:32:37;;;;;;;34.30;21.43;;;;;;;;;;4979581;28;20653;-65
2022/12/15 14:35:02;;;;;;;29.90;20.23;;;;;;;;;;4972130;28;20214;-65
2022/12/15 14:37:28;;;;;;;31.70;21.17;;;;;;;;;;4973513;28;20217;-66
2022/12/15 14:39:53;;;;;;;34.03;24.27;;;;;;;;;;4986619;28;20205;-65
2022/12/15 14:42:25;;;;;;;34.47;21.43;;;;;;;;;;5011183;28;20237;-66
2022/12/15 14:44:50;;;;;;;26.20;17.17;;;;;;;;;;5002962;28;20302;-66
2022/12/15 14:47:18;;;;;;;33.20;22.53;;;;;;;;;;5011957;28;20668;-66
2022/12/15 14:49:44;;;;;;;33.47;21.90;;;;;;;;;;4999664;28;20210;-65
2022/12/15 14:52:19;;;;;;;36.43;21.73;;;;;;;;;;4991989;28;20581;-65
2022/12/15 14:54:49;;;;;;;34.10;22.30;;;;;;;;;;4992909;28;20213;-65
2022/12/15 14:57:16;;;;;;;30.53;21.20;;;;;;;;;;5001067;28;20394;-65
2022/12/15 14:59:42;;;;;;;34.77;21.93;;;;;;;;;;4990601;28;20303;-65
2022/12/15 15:02:08;;;;;;;33.07;22.50;;;;;;;;;;4987244;28;20715;-65
2022/12/15 15:04:33;;;;;;;32.43;22.27;;;;;;;;;;4986588;28;20217;-65
2022/12/15 15:07:00;;;;;;;35.57;22.47;;;;;;;;;;4987504;28;20217;-65
2022/12/15 15:09:26;;;;;;;31.20;21.33;;;;;;;;;;5003708;28;20621;-65
2022/12/15 15:11:53;;;;;;;33.93;22.03;;;;;;;;;;5004404;28;20623;-65
2022/12/15 15:14:22;;;;;;;33.33;22.67;;;;;;;;;;5002738;28;20266;-65
2022/12/15 15:16:57;;;;;;;35.73;22.63;;;;;;;;;;4987189;28;20224;-64
2022/12/15 15:19:23;;;;;;;35.33;23.23;;;;;;;;;;4985783;28;20676;-64
2022/12/15 15:21:48;;;;;;;32.63;21.93;;;;;;;;;;4987665;28;20217;-66
2022/12/15 15:24:14;;;;;;;38.60;22.13;;;;;;;;;;5007635;28;20304;-69
2022/12/15 15:26:39;;;;;;;33.60;22.47;;;;;;;;;;5009263;28;20660;-66
2022/12/15 15:29:23;;;;;;;31.37;21.10;;;;;;;;;;5009472;28;20626;-66
2022/12/15 15:31:51;;;;;;;40.90;21.87;;;;;;;;;;5004166;28;20719;-67
2022/12/15 15:34:16;;;;;;;29.77;19.83;;;;;;;;;;5023770;28;20630;-66
2022/12/15 15:36:41;;;;;;;31.83;20.10;;;;;;;;;;5009214;28;20204;-66
2022/12/15 15:39:14;;;;;;;30.80;20.63;;;;;;;;;;5009479;28;20220;-69
2022/12/15 15:41:39;;;;;;;31.80;21.03;;;;;;;;;;5007982;28;20690;-70
2022/12/15 15:44:05;;;;;;;32.80;21.30;;;;;;;;;;4990364;28;20221;-68
2022/12/15 15:46:31;;;;;;;36.07;23.50;;;;;;;;;;4988845;28;20216;-70
2022/12/15 15:48:57;;;;;;;38.67;25.07;;;;;;;;;;5001624;28;20205;-69
2022/12/15 15:51:23;;;;;;;61.10;36.70;;;;;;;;;;4989989;28;20216;-69
2022/12/15 15:53:48;;;;;;;32.77;21.20;;;;;;;;;;4989952;28;20217;-69
2022/12/15 15:56:14;;;;;;;40.63;24.87;;;;;;;;;;4990068;28;20217;-69
2022/12/15 15:58:39;;;;;;;39.67;25.03;;;;;;;;;;4990517;28;20241;-69
2022/12/15 16:01:05;;;;;;;37.77;22.27;;;;;;;;;;4989736;28;20272;-69
2022/12/15 16:03:30;;;;;;;36.00;22.37;;;;;;;;;;4990202;28;20580;-69
2022/12/15 16:05:55;;;;;;;38.03;22.33;;;;;;;;;;4990818;28;20329;-69
2022/12/15 16:08:22;;;;;;;33.90;22.50;;;;;;;;;;4989305;28;20224;-69
2022/12/15 16:10:47;;;;;;;34.33;22.13;;;;;;;;;;5007794;28;20208;-69
2022/12/15 16:13:16;;;;;;;35.57;22.50;;;;;;;;;;5008265;28;20220;-69
2022/12/15 16:15:41;;;;;;;35.53;22.40;;;;;;;;;;5002377;28;20216;-69
2022/12/15 16:18:07;;;;;;;32.87;22.97;;;;;;;;;;4990081;28;20217;-69
2022/12/15 16:20:32;;;;;;;36.50;24.27;;;;;;;;;;4989904;28;20221;-69
2022/12/15 16:22:59;;;;;;;40.47;25.57;;;;;;;;;;5006980;28;20895;-69
2022/12/15 16:25:28;;;;;;;47.67;25.73;;;;;;;;;;5008049;28;20691;-69
2022/12/15 16:27:53;;;;;;;47.97;26.27;;;;;;;;;;5008918;28;20554;-69
2022/12/15 16:30:21;;;;;;;60.23;29.63;;;;;;;;;;5007376;28;20217;-69
2022/12/15 16:32:46;;;;;;;49.37;27.80;;;;;;;;;;5008688;28;20212;-69
2022/12/15 16:35:12;;;;;;;40.70;23.50;;;;;;;;;;5007340;28;20212;-69
2022/12/15 16:37:37;;;;;;;38.90;24.13;;;;;;;;;;5023627;28;20231;-69
2022/12/15 16:40:11;;;;;;;34.50;22.40;;;;;;;;;;5007606;28;20230;-69
2022/12/15 16:42:36;;;;;;;41.87;26.10;;;;;;;;;;5007070;28;20729;-69
2022/12/15 16:45:11;;;;;;;53.87;30.47;;;;;;;;;;5007243;28;20208;-69